sensor_id;sensor_type;location;lat;lon;timestamp;P1;durP1;ratioP1;P2;durP2;ratioP2
80705;SDS011;70229;48.010;7.852;2023-11-21T08:03:32;1.92;;;1.05;;
80705;SDS011;70229;48.010;7.852;2023-11-21T08:14:16;2.92;;;1.33;;
80705;SDS011;70229;48.010;7.852;2023-11-21T08:16:42;2.65;;;1.23;;
80705;SDS011;70229;48.010;7.852;2023-11-21T08:19:07;2.22;;;1.30;;
80705;SDS011;70229;48.010;7.852;2023-11-21T08:21:34;3.00;;;0.93;;
80705;SDS011;70229;48.010;7.852;2023-11-21T08:24:01;1.67;;;0.73;;
80705;SDS011;70229;48.010;7.852;2023-11-21T08:26:29;2.88;;;1.45;;
80705;SDS011;70229;48.010;7.852;2023-11-21T08:28:55;8.45;;;1.38;;
80705;SDS011;70229;48.010;7.852;2023-11-21T08:31:27;2.53;;;1.17;;
80705;SDS011;70229;48.010;7.852;2023-11-21T08:33:54;2.17;;;0.73;;
80705;SDS011;70229;48.010;7.852;2023-11-21T08:36:20;2.35;;;1.17;;
80705;SDS011;70229;48.010;7.852;2023-11-21T08:38:49;6.53;;;1.35;;
80705;SDS011;70229;48.010;7.852;2023-11-21T08:41:14;3.03;;;1.58;;
80705;SDS011;70229;48.010;7.852;2023-11-21T08:43:41;3.15;;;1.73;;
80705;SDS011;70229;48.010;7.852;2023-11-21T08:46:07;4.43;;;2.05;;
80705;SDS011;70229;48.010;7.852;2023-11-21T08:48:35;4.35;;;1.17;;
80705;SDS011;70229;48.010;7.852;2023-11-21T08:51:02;8.85;;;3.28;;
80705;SDS011;70229;48.010;7.852;2023-11-21T08:53:28;6.95;;;2.75;;
80705;SDS011;70229;48.010;7.852;2023-11-21T08:55:54;2.83;;;1.17;;
80705;SDS011;70229;48.010;7.852;2023-11-21T08:58:20;2.63;;;1.27;;
80705;SDS011;70229;48.010;7.852;2023-11-21T09:00:45;4.40;;;0.90;;
80705;SDS011;70229;48.010;7.852;2023-11-21T09:03:11;2.47;;;1.00;;
80705;SDS011;70229;48.010;7.852;2023-11-21T09:05:38;3.25;;;1.20;;
80705;SDS011;70229;48.010;7.852;2023-11-21T09:08:05;3.95;;;1.48;;
80705;SDS011;70229;48.010;7.852;2023-11-21T09:10:31;5.85;;;1.38;;
80705;SDS011;70229;48.010;7.852;2023-11-21T09:13:00;3.60;;;1.15;;
80705;SDS011;70229;48.010;7.852;2023-11-21T09:15:26;4.30;;;1.40;;
80705;SDS011;70229;48.010;7.852;2023-11-21T09:17:52;2.47;;;0.77;;
80705;SDS011;70229;48.010;7.852;2023-11-21T09:20:18;1.25;;;0.50;;
80705;SDS011;70229;48.010;7.852;2023-11-21T09:22:47;4.70;;;1.02;;
80705;SDS011;70229;48.010;7.852;2023-11-21T09:25:13;2.03;;;0.77;;
80705;SDS011;70229;48.010;7.852;2023-11-21T09:27:39;2.97;;;1.00;;
80705;SDS011;70229;48.010;7.852;2023-11-21T09:30:05;4.30;;;1.50;;
80705;SDS011;70229;48.010;7.852;2023-11-21T09:32:34;2.90;;;1.05;;
80705;SDS011;70229;48.010;7.852;2023-11-21T09:35:02;1.85;;;0.85;;
80705;SDS011;70229;48.010;7.852;2023-11-21T09:37:29;2.75;;;1.05;;
80705;SDS011;70229;48.010;7.852;2023-11-21T09:39:55;3.95;;;0.85;;
80705;SDS011;70229;48.010;7.852;2023-11-21T09:42:32;2.65;;;0.80;;
80705;SDS011;70229;48.010;7.852;2023-11-21T09:45:21;1.98;;;0.88;;
80705;SDS011;70229;48.010;7.852;2023-11-21T09:47:51;3.35;;;1.25;;
80705;SDS011;70229;48.010;7.852;2023-11-21T09:50:19;3.83;;;1.23;;
80705;SDS011;70229;48.010;7.852;2023-11-21T09:55:29;3.03;;;1.40;;
80705;SDS011;70229;48.010;7.852;2023-11-21T09:58:00;3.50;;;1.38;;
80705;SDS011;70229;48.010;7.852;2023-11-21T10:00:28;7.25;;;2.08;;
80705;SDS011;70229;48.010;7.852;2023-11-21T10:02:58;2.75;;;1.30;;
80705;SDS011;70229;48.010;7.852;2023-11-21T10:05:24;3.67;;;0.90;;
80705;SDS011;70229;48.010;7.852;2023-11-21T10:07:50;3.65;;;0.70;;
80705;SDS011;70229;48.010;7.852;2023-11-21T10:10:17;5.95;;;0.93;;
80705;SDS011;70229;48.010;7.852;2023-11-21T10:12:46;1.58;;;0.52;;
80705;SDS011;70229;48.010;7.852;2023-11-21T10:15:18;3.87;;;0.80;;
80705;SDS011;70229;48.010;7.852;2023-11-21T10:17:46;11.27;;;0.98;;
80705;SDS011;70229;48.010;7.852;2023-11-21T10:20:14;3.78;;;0.90;;
80705;SDS011;70229;48.010;7.852;2023-11-21T10:22:41;2.20;;;0.75;;
80705;SDS011;70229;48.010;7.852;2023-11-21T10:25:08;2.65;;;1.00;;
80705;SDS011;70229;48.010;7.852;2023-11-21T10:27:34;2.40;;;1.00;;
80705;SDS011;70229;48.010;7.852;2023-11-21T10:30:05;1.48;;;0.60;;
80705;SDS011;70229;48.010;7.852;2023-11-21T10:32:37;7.95;;;1.20;;
80705;SDS011;70229;48.010;7.852;2023-11-21T10:35:07;3.05;;;1.25;;
80705;SDS011;70229;48.010;7.852;2023-11-21T10:37:40;2.15;;;1.05;;
80705;SDS011;70229;48.010;7.852;2023-11-21T10:40:06;2.25;;;0.77;;
80705;SDS011;70229;48.010;7.852;2023-11-21T10:42:34;2.22;;;1.00;;
80705;SDS011;70229;48.010;7.852;2023-11-21T10:44:59;3.72;;;1.08;;
80705;SDS011;70229;48.010;7.852;2023-11-21T10:47:25;1.80;;;0.90;;
80705;SDS011;70229;48.010;7.852;2023-11-21T10:49:52;3.85;;;0.85;;
80705;SDS011;70229;48.010;7.852;2023-11-21T10:52:20;4.82;;;1.35;;
80705;SDS011;70229;48.010;7.852;2023-11-21T10:54:46;1.95;;;1.05;;
80705;SDS011;70229;48.010;7.852;2023-11-21T10:57:13;2.22;;;1.20;;
80705;SDS011;70229;48.010;7.852;2023-11-21T10:59:44;3.10;;;1.27;;
80705;SDS011;70229;48.010;7.852;2023-11-21T11:02:46;3.45;;;1.25;;
80705;SDS011;70229;48.010;7.852;2023-11-21T11:05:05;2.25;;;1.08;;
80705;SDS011;70229;48.010;7.852;2023-11-21T11:07:36;4.15;;;1.88;;
80705;SDS011;70229;48.010;7.852;2023-11-21T11:10:06;3.25;;;1.08;;
80705;SDS011;70229;48.010;7.852;2023-11-21T11:12:34;3.92;;;2.03;;
80705;SDS011;70229;48.010;7.852;2023-11-21T11:15:08;3.25;;;1.67;;
80705;SDS011;70229;48.010;7.852;2023-11-21T11:17:37;3.38;;;0.95;;
80705;SDS011;70229;48.010;7.852;2023-11-21T11:20:04;4.13;;;1.40;;
80705;SDS011;70229;48.010;7.852;2023-11-21T11:22:41;3.42;;;1.83;;
80705;SDS011;70229;48.010;7.852;2023-11-21T11:25:25;2.42;;;1.33;;
80705;SDS011;70229;48.010;7.852;2023-11-21T11:28:04;2.58;;;1.02;;
80705;SDS011;70229;48.010;7.852;2023-11-21T11:31:00;2.88;;;1.23;;
80705;SDS011;70229;48.010;7.852;2023-11-21T11:33:54;3.08;;;1.45;;
80705;SDS011;70229;48.010;7.852;2023-11-21T11:36:31;3.10;;;1.30;;
80705;SDS011;70229;48.010;7.852;2023-11-21T11:39:02;2.60;;;1.23;;
80705;SDS011;70229;48.010;7.852;2023-11-21T11:41:48;2.97;;;1.15;;
80705;SDS011;70229;48.010;7.852;2023-11-21T11:50:03;3.17;;;1.85;;
80705;SDS011;70229;48.010;7.852;2023-11-21T11:52:42;2.70;;;1.30;;
80705;SDS011;70229;48.010;7.852;2023-11-21T11:55:13;4.03;;;1.38;;
80705;SDS011;70229;48.010;7.852;2023-11-21T11:57:43;2.53;;;1.25;;
80705;SDS011;70229;48.010;7.852;2023-11-21T12:02:58;2.25;;;0.90;;
80705;SDS011;70229;48.010;7.852;2023-11-21T12:05:29;1.83;;;0.93;;
80705;SDS011;70229;48.010;7.852;2023-11-21T12:08:10;3.88;;;1.10;;
80705;SDS011;70229;48.010;7.852;2023-11-21T12:10:37;2.17;;;1.02;;
80705;SDS011;70229;48.010;7.852;2023-11-21T12:13:08;2.35;;;1.10;;
80705;SDS011;70229;48.010;7.852;2023-11-21T12:15:35;1.38;;;0.70;;
80705;SDS011;70229;48.010;7.852;2023-11-21T12:18:01;7.22;;;1.25;;
80705;SDS011;70229;48.010;7.852;2023-11-21T12:20:31;3.67;;;1.52;;
80705;SDS011;70229;48.010;7.852;2023-11-21T12:23:05;5.30;;;1.50;;
80705;SDS011;70229;48.010;7.852;2023-11-21T12:25:33;4.53;;;1.20;;
80705;SDS011;70229;48.010;7.852;2023-11-21T12:28:02;2.83;;;1.58;;
80705;SDS011;70229;48.010;7.852;2023-11-21T12:30:33;2.17;;;0.88;;
80705;SDS011;70229;48.010;7.852;2023-11-21T12:33:03;2.08;;;0.85;;
80705;SDS011;70229;48.010;7.852;2023-11-21T12:35:33;1.98;;;1.20;;
80705;SDS011;70229;48.010;7.852;2023-11-21T12:38:00;3.10;;;1.45;;
80705;SDS011;70229;48.010;7.852;2023-11-21T12:40:28;3.53;;;1.92;;
80705;SDS011;70229;48.010;7.852;2023-11-21T12:42:57;5.40;;;1.55;;
80705;SDS011;70229;48.010;7.852;2023-11-21T12:45:26;3.25;;;1.77;;
80705;SDS011;70229;48.010;7.852;2023-11-21T12:47:57;3.67;;;1.80;;
80705;SDS011;70229;48.010;7.852;2023-11-21T12:50:29;5.47;;;2.17;;
80705;SDS011;70229;48.010;7.852;2023-11-21T12:52:59;3.28;;;1.50;;
80705;SDS011;70229;48.010;7.852;2023-11-21T12:55:26;3.25;;;1.73;;
80705;SDS011;70229;48.010;7.852;2023-11-21T12:57:55;3.38;;;1.85;;
80705;SDS011;70229;48.010;7.852;2023-11-21T13:00:28;2.17;;;1.20;;
80705;SDS011;70229;48.010;7.852;2023-11-21T13:03:01;8.60;;;5.45;;
80705;SDS011;70229;48.010;7.852;2023-11-21T13:05:29;7.88;;;5.55;;
80705;SDS011;70229;48.010;7.852;2023-11-21T13:07:57;3.97;;;1.98;;
80705;SDS011;70229;48.010;7.852;2023-11-21T13:10:24;2.30;;;1.10;;
80705;SDS011;70229;48.010;7.852;2023-11-21T13:12:54;2.80;;;1.52;;
80705;SDS011;70229;48.010;7.852;2023-11-21T13:15:23;3.72;;;1.73;;
80705;SDS011;70229;48.010;7.852;2023-11-21T13:17:49;4.15;;;2.33;;
80705;SDS011;70229;48.010;7.852;2023-11-21T13:20:16;4.00;;;1.63;;
80705;SDS011;70229;48.010;7.852;2023-11-21T13:22:46;2.70;;;1.58;;
80705;SDS011;70229;48.010;7.852;2023-11-21T13:25:14;4.25;;;2.00;;
80705;SDS011;70229;48.010;7.852;2023-11-21T13:27:46;6.05;;;2.28;;
80705;SDS011;70229;48.010;7.852;2023-11-21T13:30:12;3.63;;;2.10;;
80705;SDS011;70229;48.010;7.852;2023-11-21T13:32:44;3.58;;;1.75;;
80705;SDS011;70229;48.010;7.852;2023-11-21T13:35:16;3.00;;;1.60;;
80705;SDS011;70229;48.010;7.852;2023-11-21T13:37:55;4.80;;;2.03;;
80705;SDS011;70229;48.010;7.852;2023-11-21T13:40:25;4.38;;;1.85;;
80705;SDS011;70229;48.010;7.852;2023-11-21T13:42:55;2.47;;;1.45;;
80705;SDS011;70229;48.010;7.852;2023-11-21T13:45:24;2.95;;;1.05;;
80705;SDS011;70229;48.010;7.852;2023-11-21T13:47:53;2.33;;;1.10;;
80705;SDS011;70229;48.010;7.852;2023-11-21T13:50:26;3.75;;;1.65;;
80705;SDS011;70229;48.010;7.852;2023-11-21T13:53:02;2.83;;;1.45;;
80705;SDS011;70229;48.010;7.852;2023-11-21T13:55:50;3.80;;;1.83;;
80705;SDS011;70229;48.010;7.852;2023-11-21T13:58:19;3.50;;;1.48;;
80705;SDS011;70229;48.010;7.852;2023-11-21T14:00:49;3.45;;;1.33;;
80705;SDS011;70229;48.010;7.852;2023-11-21T14:03:27;2.45;;;1.30;;
80705;SDS011;70229;48.010;7.852;2023-11-21T14:06:09;3.97;;;1.67;;
80705;SDS011;70229;48.010;7.852;2023-11-21T14:08:47;4.30;;;2.13;;
80705;SDS011;70229;48.010;7.852;2023-11-21T14:11:13;2.92;;;1.80;;
80705;SDS011;70229;48.010;7.852;2023-11-21T14:13:43;2.78;;;1.48;;
80705;SDS011;70229;48.010;7.852;2023-11-21T21:31:57;8.98;;;7.20;;
80705;SDS011;70229;48.010;7.852;2023-11-21T21:34:29;10.68;;;7.32;;
80705;SDS011;70229;48.010;7.852;2023-11-21T21:36:54;10.50;;;6.90;;
80705;SDS011;70229;48.010;7.852;2023-11-21T21:39:25;9.73;;;6.53;;
80705;SDS011;70229;48.010;7.852;2023-11-21T21:41:56;9.52;;;7.32;;
80705;SDS011;70229;48.010;7.852;2023-11-21T21:44:22;9.02;;;6.70;;
80705;SDS011;70229;48.010;7.852;2023-11-21T21:46:58;9.70;;;6.30;;
80705;SDS011;70229;48.010;7.852;2023-11-21T21:49:24;11.10;;;7.45;;
80705;SDS011;70229;48.010;7.852;2023-11-21T21:51:49;9.77;;;6.40;;
80705;SDS011;70229;48.010;7.852;2023-11-21T21:54:15;8.82;;;6.80;;
80705;SDS011;70229;48.010;7.852;2023-11-21T21:56:41;10.88;;;7.82;;
80705;SDS011;70229;48.010;7.852;2023-11-21T21:59:09;9.40;;;6.88;;
80705;SDS011;70229;48.010;7.852;2023-11-21T22:01:42;9.68;;;7.55;;
80705;SDS011;70229;48.010;7.852;2023-11-21T22:04:08;11.52;;;7.25;;
80705;SDS011;70229;48.010;7.852;2023-11-21T22:06:34;13.10;;;8.80;;
80705;SDS011;70229;48.010;7.852;2023-11-21T22:09:00;8.70;;;6.55;;
80705;SDS011;70229;48.010;7.852;2023-11-21T22:11:28;8.98;;;6.60;;
80705;SDS011;70229;48.010;7.852;2023-11-21T22:13:54;9.70;;;5.68;;
80705;SDS011;70229;48.010;7.852;2023-11-21T22:16:20;8.75;;;7.65;;
80705;SDS011;70229;48.010;7.852;2023-11-21T22:18:49;8.35;;;6.78;;
80705;SDS011;70229;48.010;7.852;2023-11-21T22:21:20;11.00;;;7.32;;
80705;SDS011;70229;48.010;7.852;2023-11-21T22:23:49;9.60;;;6.93;;
80705;SDS011;70229;48.010;7.852;2023-11-21T22:26:18;9.35;;;6.82;;
80705;SDS011;70229;48.010;7.852;2023-11-21T22:28:50;10.80;;;8.55;;
80705;SDS011;70229;48.010;7.852;2023-11-21T22:31:31;10.95;;;6.88;;
80705;SDS011;70229;48.010;7.852;2023-11-21T22:34:15;13.95;;;9.52;;
80705;SDS011;70229;48.010;7.852;2023-11-21T22:36:41;10.10;;;8.45;;
80705;SDS011;70229;48.010;7.852;2023-11-21T22:39:06;11.27;;;8.05;;
80705;SDS011;70229;48.010;7.852;2023-11-21T22:41:33;11.70;;;7.00;;
80705;SDS011;70229;48.010;7.852;2023-11-21T22:43:59;14.77;;;8.80;;
80705;SDS011;70229;48.010;7.852;2023-11-21T22:46:25;12.38;;;8.77;;
80705;SDS011;70229;48.010;7.852;2023-11-21T22:48:50;11.20;;;7.60;;
80705;SDS011;70229;48.010;7.852;2023-11-21T22:51:19;14.07;;;8.32;;
80705;SDS011;70229;48.010;7.852;2023-11-21T22:53:45;10.88;;;8.93;;
80705;SDS011;70229;48.010;7.852;2023-11-21T22:56:11;15.18;;;8.38;;
80705;SDS011;70229;48.010;7.852;2023-11-21T22:58:47;10.90;;;7.38;;
80705;SDS011;70229;48.010;7.852;2023-11-21T23:01:15;10.13;;;7.90;;
80705;SDS011;70229;48.010;7.852;2023-11-21T23:03:40;11.45;;;8.55;;
80705;SDS011;70229;48.010;7.852;2023-11-21T23:06:06;14.32;;;9.82;;
80705;SDS011;70229;48.010;7.852;2023-11-21T23:08:32;12.00;;;7.65;;
80705;SDS011;70229;48.010;7.852;2023-11-21T23:10:59;22.33;;;8.60;;
80705;SDS011;70229;48.010;7.852;2023-11-21T23:13:34;11.40;;;8.30;;
80705;SDS011;70229;48.010;7.852;2023-11-21T23:18:25;12.57;;;7.75;;
80705;SDS011;70229;48.010;7.852;2023-11-21T23:20:54;15.20;;;7.45;;
80705;SDS011;70229;48.010;7.852;2023-11-21T23:23:20;13.10;;;9.25;;
80705;SDS011;70229;48.010;7.852;2023-11-21T23:25:56;13.48;;;9.15;;
80705;SDS011;70229;48.010;7.852;2023-11-21T23:28:22;14.98;;;7.97;;
80705;SDS011;70229;48.010;7.852;2023-11-21T23:30:49;10.93;;;7.85;;
80705;SDS011;70229;48.010;7.852;2023-11-21T23:33:16;13.60;;;8.20;;
80705;SDS011;70229;48.010;7.852;2023-11-21T23:35:44;12.93;;;8.93;;
80705;SDS011;70229;48.010;7.852;2023-11-21T23:38:10;12.77;;;9.27;;
80705;SDS011;70229;48.010;7.852;2023-11-21T23:40:36;14.18;;;8.18;;
80705;SDS011;70229;48.010;7.852;2023-11-21T23:43:04;14.05;;;8.63;;
80705;SDS011;70229;48.010;7.852;2023-11-21T23:45:29;11.38;;;7.15;;
80705;SDS011;70229;48.010;7.852;2023-11-21T23:47:55;14.35;;;9.25;;
80705;SDS011;70229;48.010;7.852;2023-11-21T23:50:21;13.82;;;9.45;;
80705;SDS011;70229;48.010;7.852;2023-11-21T23:52:49;12.65;;;9.05;;
80705;SDS011;70229;48.010;7.852;2023-11-21T23:55:16;13.27;;;9.27;;
80705;SDS011;70229;48.010;7.852;2023-11-21T23:57:42;10.50;;;7.45;;
